Terminal Aerodrome Forecast
Issued by NWS Jackson, MS

Home | Current Version | Previous Version | Text Only | Print | Product List | Glossary On
Versions: 1 2 3 4 5 6 7 8 9 10 11 12 13 14
000
FTUS44 KJAN 311700
TAFMEI
TAF
KMEI 311722Z 3118/0118 11008KT P6SM SCT150
     FM011000 15008KT P6SM SCT010 BKN025
     FM011700 18011G18KT P6SM -SHRA OVC007=

USA.gov is the U.S. government's official web portal to all federal, state and local government web resources and services.